createdAt,value
2023-03-07T00:01:55.681Z,100.00
2023-03-07T00:04:26.232Z,100.00
2023-03-07T00:06:59.069Z,100.00
2023-03-07T00:09:32.138Z,100.00
2023-03-07T00:12:02.255Z,100.00
2023-03-07T00:14:33.108Z,100.00
2023-03-07T00:17:03.313Z,100.00
2023-03-07T00:19:33.515Z,100.00
2023-03-07T00:22:03.572Z,100.00
2023-03-07T00:24:36.326Z,100.00
2023-03-07T00:27:07.757Z,100.00
2023-03-07T00:29:38.268Z,100.00
2023-03-07T00:32:09.301Z,100.00
2023-03-07T00:34:39.552Z,100.00
2023-03-07T00:37:09.590Z,100.00
2023-03-07T00:39:42.644Z,100.00
2023-03-07T00:42:13.127Z,100.00
2023-03-07T00:44:43.477Z,100.00
2023-03-07T00:47:13.479Z,100.00
2023-03-07T00:49:43.826Z,100.00
2023-03-07T00:52:14.040Z,100.00
2023-03-07T00:54:46.940Z,100.00
2023-03-07T00:57:17.170Z,100.00
2023-03-07T00:59:47.984Z,100.00
2023-03-07T01:02:18.496Z,100.00
2023-03-07T01:04:49.096Z,100.00
2023-03-07T01:07:19.305Z,100.00
2023-03-07T01:09:54.333Z,100.00
2023-03-07T01:12:25.140Z,100.00
2023-03-07T01:14:55.607Z,100.00
2023-03-07T01:17:25.820Z,100.00
2023-03-07T01:19:55.860Z,100.00
2023-03-07T01:22:26.198Z,100.00
2023-03-07T01:24:59.108Z,100.00
2023-03-07T01:27:29.703Z,100.00
2023-03-07T01:30:00.315Z,100.00
2023-03-07T01:32:30.594Z,100.00
2023-03-07T01:35:00.667Z,100.00
2023-03-07T01:37:30.769Z,100.00
2023-03-07T01:40:05.070Z,100.00
2023-03-07T01:42:35.337Z,99.30
2023-03-07T01:45:30.701Z,100.00
2023-03-07T01:48:00.819Z,100.00
2023-03-07T01:50:32.008Z,100.00
2023-03-07T01:53:03.995Z,100.00
2023-03-07T01:55:39.436Z,100.00
2023-03-07T01:58:21.620Z,100.00
2023-03-07T02:00:52.480Z,100.00
2023-03-07T02:03:33.317Z,100.00
2023-03-07T02:06:10.585Z,100.00
2023-03-07T02:08:42.989Z,100.00
2023-03-07T02:11:16.492Z,100.00
2023-03-07T02:13:47.085Z,100.00
2023-03-07T02:16:17.747Z,100.00
2023-03-07T02:18:52.509Z,100.00
2023-03-07T02:21:42.061Z,100.00
2023-03-07T02:24:25.772Z,100.00
2023-03-07T02:26:59.804Z,100.00
2023-03-07T02:29:30.365Z,100.00
2023-03-07T02:32:00.465Z,100.00
2023-03-07T02:34:33.761Z,100.00
2023-03-07T02:37:30.630Z,100.00
2023-03-07T02:40:07.548Z,100.00
2023-03-07T02:42:44.901Z,100.00
2023-03-07T02:45:21.533Z,100.00
2023-03-07T02:47:51.747Z,100.00
2023-03-07T02:50:22.448Z,100.00
2023-03-07T02:52:55.373Z,100.00
2023-03-07T02:55:25.995Z,100.00
2023-03-07T02:58:05.880Z,100.00
2023-03-07T03:00:37.161Z,100.00
2023-03-07T03:03:08.122Z,100.00
2023-03-07T03:05:38.459Z,100.00
2023-03-07T03:08:08.986Z,100.00
2023-03-07T03:10:39.520Z,100.00
2023-03-07T03:13:12.502Z,100.00
2023-03-07T03:15:45.109Z,100.00
2023-03-07T03:18:15.767Z,100.00
2023-03-07T03:20:46.542Z,100.00
2023-03-07T03:23:16.756Z,100.00
2023-03-07T03:25:47.236Z,100.00
2023-03-07T03:28:20.247Z,100.00
2023-03-07T03:31:00.936Z,100.00
2023-03-07T03:33:33.259Z,100.00
2023-03-07T03:36:10.193Z,100.00
2023-03-07T03:38:40.831Z,100.00
2023-03-07T03:41:17.774Z,100.00
2023-03-07T03:43:52.481Z,100.00
2023-03-07T03:46:22.899Z,100.00
2023-03-07T03:48:57.340Z,100.00
2023-03-07T03:51:30.901Z,100.00
2023-03-07T03:54:01.233Z,99.36
2023-03-07T03:56:31.889Z,100.00
2023-03-07T03:59:04.674Z,100.00
2023-03-07T04:01:35.130Z,100.00
2023-03-07T04:04:05.766Z,98.05
2023-03-07T04:06:38.100Z,100.00
2023-03-07T04:09:09.291Z,99.88
2023-03-07T04:11:43.057Z,100.00
2023-03-07T04:14:16.323Z,97.45
2023-03-07T04:16:47.355Z,97.97
2023-03-07T04:19:18.376Z,97.60
2023-03-07T04:21:48.637Z,97.46
2023-03-07T04:24:19.995Z,99.57
2023-03-07T04:26:50.443Z,100.00
2023-03-07T04:29:23.393Z,98.24
2023-03-07T04:31:57.749Z,100.00
2023-03-07T04:34:28.266Z,99.50
2023-03-07T04:36:58.542Z,100.00
2023-03-07T04:39:29.096Z,100.00
2023-03-07T04:41:59.218Z,100.00
2023-03-07T04:44:36.233Z,100.00
2023-03-07T04:47:06.412Z,100.00
2023-03-07T04:49:39.089Z,100.00
2023-03-07T04:52:10.026Z,100.00
2023-03-07T04:54:40.990Z,100.00
2023-03-07T04:57:12.077Z,100.00
2023-03-07T04:59:45.394Z,100.00
2023-03-07T05:02:16.588Z,100.00
2023-03-07T05:04:46.711Z,100.00
2023-03-07T05:07:18.176Z,100.00
2023-03-07T05:09:48.530Z,100.00
2023-03-07T05:12:18.912Z,100.00
2023-03-07T05:14:51.803Z,100.00
2023-03-07T05:17:23.150Z,100.00
2023-03-07T05:19:53.573Z,98.34
2023-03-07T05:22:24.353Z,96.83
2023-03-07T05:24:54.393Z,98.70
2023-03-07T05:27:24.654Z,96.82
2023-03-07T05:29:57.563Z,98.24
2023-03-07T05:32:27.796Z,97.82
2023-03-07T05:34:58.299Z,100.00
2023-03-07T05:37:29.017Z,96.38
2023-03-07T05:39:59.597Z,96.62
2023-03-07T05:42:29.917Z,96.17
2023-03-07T05:45:02.601Z,99.11
2023-03-07T05:47:33.304Z,97.07
2023-03-07T05:50:03.600Z,95.85
2023-03-07T05:52:33.821Z,93.18
2023-03-07T05:55:04.562Z,95.74
2023-03-07T05:57:35.764Z,96.57
2023-03-07T06:00:11.811Z,94.35
2023-03-07T06:02:48.133Z,92.98
2023-03-07T06:05:19.963Z,95.51
2023-03-07T06:07:50.455Z,90.50
2023-03-07T06:10:21.162Z,92.17
2023-03-07T06:12:53.790Z,90.74
2023-03-07T06:15:26.674Z,94.77
2023-03-07T06:18:03.858Z,91.96
2023-03-07T06:20:33.870Z,92.98
2023-03-07T06:23:06.812Z,88.83
2023-03-07T06:25:38.521Z,88.05
2023-03-07T06:28:08.681Z,87.54
2023-03-07T06:30:41.469Z,90.95
2023-03-07T06:33:12.026Z,87.29
2023-03-07T06:35:44.781Z,88.51
2023-03-07T06:38:18.597Z,91.66
2023-03-07T06:40:57.884Z,87.73
2023-03-07T06:43:28.145Z,82.92
2023-03-07T06:46:01.385Z,89.90
2023-03-07T06:48:37.200Z,84.52
2023-03-07T06:51:11.761Z,82.74
2023-03-07T06:53:44.596Z,81.79
2023-03-07T06:56:15.122Z,81.74
2023-03-07T06:58:46.581Z,81.14
2023-03-07T07:01:23.569Z,82.49
2023-03-07T07:03:55.924Z,79.27
2023-03-07T07:06:26.377Z,80.60
2023-03-07T07:08:58.616Z,79.04
2023-03-07T07:11:33.043Z,76.42
2023-03-07T07:14:04.587Z,78.45
2023-03-07T07:16:37.996Z,77.59
2023-03-07T07:19:08.984Z,75.91
2023-03-07T07:21:39.419Z,75.40
2023-03-07T07:24:10.336Z,72.15
2023-03-07T07:26:41.025Z,74.86
2023-03-07T07:29:11.686Z,73.57
2023-03-07T07:31:45.383Z,70.70
2023-03-07T07:34:16.043Z,66.49
2023-03-07T07:36:46.153Z,64.15
2023-03-07T07:39:17.821Z,64.93
2023-03-07T07:41:49.999Z,62.16
2023-03-07T07:44:23.168Z,63.67
2023-03-07T07:46:59.992Z,60.81
2023-03-07T07:49:30.441Z,60.37
2023-03-07T07:52:00.575Z,58.02
2023-03-07T07:54:30.935Z,56.87
2023-03-07T07:57:01.071Z,55.29
2023-03-07T07:59:31.893Z,55.52
2023-03-07T08:02:04.560Z,55.84
2023-03-07T08:04:35.877Z,54.96
2023-03-07T08:07:06.312Z,53.52
2023-03-07T08:09:37.176Z,52.05
2023-03-07T08:12:08.458Z,49.13
2023-03-07T08:14:39.256Z,48.05
2023-03-07T08:17:12.154Z,47.07
2023-03-07T08:19:42.322Z,45.64
2023-03-07T08:22:12.441Z,46.46
2023-03-07T08:24:43.833Z,45.78
2023-03-07T08:27:13.868Z,43.17
2023-03-07T08:29:44.350Z,42.76
2023-03-07T08:32:18.348Z,42.96
2023-03-07T08:34:49.035Z,42.67
2023-03-07T08:37:19.166Z,46.36
2023-03-07T08:39:49.749Z,48.14
2023-03-07T08:42:20.854Z,47.79
2023-03-07T08:44:50.943Z,46.88
2023-03-07T08:47:24.459Z,48.04
2023-03-07T08:49:54.486Z,49.30
2023-03-07T08:52:24.573Z,47.92
2023-03-07T08:54:54.755Z,48.62
2023-03-07T08:57:25.602Z,48.56
2023-03-07T08:59:55.902Z,49.46
2023-03-07T09:02:28.614Z,49.06
2023-03-07T09:04:58.854Z,49.03
2023-03-07T09:07:30.112Z,48.29
2023-03-07T09:10:00.380Z,47.00
2023-03-07T09:12:31.010Z,46.31
2023-03-07T09:15:00.980Z,46.45
2023-03-07T09:17:34.441Z,47.45
2023-03-07T09:20:05.395Z,48.49
2023-03-07T09:22:35.872Z,48.54
2023-03-07T09:25:07.024Z,47.24
2023-03-07T09:27:37.434Z,47.55
2023-03-07T09:30:09.893Z,46.83
2023-03-07T09:32:43.589Z,46.98
2023-03-07T09:35:14.512Z,47.51
2023-03-07T09:37:45.275Z,47.01
2023-03-07T09:40:23.794Z,48.04
2023-03-07T09:43:07.339Z,48.18
2023-03-07T09:45:53.431Z,48.34
2023-03-07T09:48:56.596Z,49.40
2023-03-07T09:51:34.489Z,50.28
2023-03-07T09:54:13.657Z,49.61
2023-03-07T09:56:50.778Z,51.03
2023-03-07T09:59:26.923Z,51.60
2023-03-07T10:02:13.936Z,51.12
2023-03-07T10:04:57.755Z,51.14
2023-03-07T10:07:29.734Z,53.00
2023-03-07T10:10:05.269Z,52.40
2023-03-07T10:13:12.592Z,52.28
2023-03-07T10:15:50.471Z,53.16
2023-03-07T10:18:50.054Z,54.52
2023-03-07T10:21:36.115Z,54.06
2023-03-07T10:24:40.235Z,54.62
2023-03-07T10:27:13.246Z,53.99
2023-03-07T10:29:50.906Z,54.06
2023-03-07T10:32:38.689Z,54.29
2023-03-07T10:35:21.443Z,53.99
2023-03-07T10:38:00.358Z,54.48
2023-03-07T10:40:37.822Z,54.72
2023-03-07T10:43:09.470Z,54.67
2023-03-07T10:45:40.428Z,54.27
2023-03-07T10:48:20.785Z,54.05
2023-03-07T10:51:04.411Z,52.56
2023-03-07T10:53:42.179Z,52.45
2023-03-07T10:56:17.060Z,52.39
2023-03-07T10:59:04.248Z,52.13
2023-03-07T11:01:36.571Z,51.77
2023-03-07T11:04:09.528Z,52.23
2023-03-07T11:06:44.685Z,52.03
2023-03-07T11:09:27.815Z,52.43
2023-03-07T11:12:01.570Z,51.47
2023-03-07T11:14:32.423Z,51.54
2023-03-07T11:17:05.300Z,52.13
2023-03-07T11:19:43.747Z,52.20
2023-03-07T11:22:28.566Z,51.89
2023-03-07T11:25:19.114Z,52.13
2023-03-07T11:27:56.497Z,52.46
2023-03-07T11:30:33.177Z,52.22
2023-03-07T11:33:18.337Z,52.35
2023-03-07T11:36:04.916Z,52.62
2023-03-07T11:39:02.729Z,52.53
2023-03-07T11:41:42.509Z,52.80
2023-03-07T11:44:38.889Z,52.74
2023-03-07T11:47:39.858Z,51.13
2023-03-07T11:50:25.414Z,51.79
2023-03-07T11:53:30.949Z,51.33
2023-03-07T11:56:26.285Z,51.73
2023-03-07T11:59:52.153Z,51.73
2023-03-07T12:03:03.201Z,51.63
2023-03-07T12:05:52.920Z,51.49
2023-03-07T12:08:55.107Z,51.61
2023-03-07T12:11:44.642Z,52.67
2023-03-07T12:14:29.820Z,51.31
2023-03-07T12:17:17.776Z,51.49
2023-03-07T12:20:28.730Z,51.09
2023-03-07T12:23:12.892Z,51.27
2023-03-07T12:25:49.331Z,51.48
2023-03-07T12:28:28.924Z,50.81
2023-03-07T12:31:11.632Z,50.72
2023-03-07T12:34:06.515Z,50.53
2023-03-07T12:36:47.286Z,50.01
2023-03-07T12:39:27.603Z,50.04
2023-03-07T12:42:08.884Z,49.77
2023-03-07T12:44:45.898Z,49.29
2023-03-07T12:47:26.591Z,47.97
2023-03-07T12:50:07.737Z,47.70
2023-03-07T12:52:46.469Z,48.29
2023-03-07T12:55:28.068Z,47.58
2023-03-07T12:58:09.733Z,47.37
2023-03-07T13:00:46.796Z,47.37
2023-03-07T13:03:29.352Z,47.91
2023-03-07T13:06:02.102Z,47.82
2023-03-07T13:08:32.985Z,47.06
2023-03-07T13:11:03.428Z,46.60
2023-03-07T13:13:56.201Z,45.08
2023-03-07T13:16:44.135Z,45.28
2023-03-07T13:20:01.651Z,46.45
2023-03-07T13:23:14.673Z,46.50
2023-03-07T13:26:05.179Z,48.29
2023-03-07T13:28:45.870Z,47.28
2023-03-07T13:31:47.181Z,47.92
2023-03-07T13:34:53.429Z,47.86
2023-03-07T13:38:03.864Z,47.86
2023-03-07T13:40:58.613Z,46.84
2023-03-07T13:44:00.332Z,45.79
2023-03-07T13:46:52.454Z,44.72
2023-03-07T13:49:47.953Z,44.83
2023-03-07T13:52:45.529Z,45.52
2023-03-07T13:55:27.782Z,45.49
2023-03-07T13:58:04.341Z,45.63
2023-03-07T14:00:43.585Z,45.75
2023-03-07T14:03:29.462Z,46.99
2023-03-07T14:06:07.219Z,45.19
2023-03-07T14:08:38.571Z,45.63
2023-03-07T14:11:24.418Z,45.62
2023-03-07T14:14:28.396Z,46.38
2023-03-07T14:17:18.946Z,46.16
2023-03-07T14:20:09.537Z,48.02
2023-03-07T14:22:58.035Z,48.23
2023-03-07T14:25:30.271Z,48.06
2023-03-07T14:28:05.655Z,47.23
2023-03-07T14:30:40.667Z,47.05
2023-03-07T14:33:21.122Z,46.72
2023-03-07T14:35:51.199Z,47.68
2023-03-07T14:38:26.239Z,47.12
2023-03-07T14:41:29.703Z,47.76
2023-03-07T14:44:23.180Z,47.47
2023-03-07T14:47:11.879Z,47.64
2023-03-07T14:49:49.503Z,48.32
2023-03-07T14:52:30.419Z,48.23
2023-03-07T14:55:05.774Z,48.08
2023-03-07T14:57:43.364Z,47.79
2023-03-07T15:00:29.427Z,47.58
2023-03-07T15:03:04.306Z,47.26
2023-03-07T15:05:37.682Z,47.25
2023-03-07T15:08:21.869Z,46.27
2023-03-07T15:10:58.726Z,46.20
2023-03-07T15:13:35.999Z,46.68
2023-03-07T15:16:14.700Z,46.14
2023-03-07T15:18:52.722Z,45.81
2023-03-07T15:21:27.140Z,46.12
2023-03-07T15:24:00.624Z,45.59
2023-03-07T15:26:32.515Z,46.65
2023-03-07T15:29:05.749Z,46.60
2023-03-07T15:31:54.896Z,47.05
2023-03-07T15:34:30.928Z,47.64
2023-03-07T15:37:23.622Z,47.30
2023-03-07T15:40:03.047Z,47.88
2023-03-07T15:42:34.859Z,48.14
2023-03-07T15:45:08.248Z,48.45
2023-03-07T15:47:43.532Z,48.88
2023-03-07T15:50:28.417Z,49.04
2023-03-07T15:53:09.143Z,49.43
2023-03-07T15:55:42.346Z,49.20
2023-03-07T15:58:17.592Z,49.03
2023-03-07T16:00:47.554Z,49.47
2023-03-07T16:03:30.077Z,49.43
2023-03-07T16:06:07.449Z,49.89
2023-03-07T16:08:37.713Z,50.36
2023-03-07T16:11:10.443Z,50.48
2023-03-07T16:13:46.546Z,50.45
2023-03-07T16:16:24.185Z,50.58
2023-03-07T16:18:59.697Z,50.71
2023-03-07T16:21:30.434Z,50.71
2023-03-07T16:24:00.835Z,50.97
2023-03-07T16:26:31.975Z,51.09
2023-03-07T16:29:03.864Z,51.00
2023-03-07T16:31:34.071Z,51.18
2023-03-07T16:34:15.129Z,50.93
2023-03-07T16:36:47.483Z,51.15
2023-03-07T16:39:18.717Z,52.39
2023-03-07T16:41:52.382Z,51.98
2023-03-07T16:44:25.202Z,52.54
2023-03-07T16:47:05.249Z,52.95
2023-03-07T16:49:38.237Z,53.47
2023-03-07T16:52:09.946Z,53.89
2023-03-07T16:54:40.441Z,54.25
2023-03-07T16:57:15.944Z,55.28
2023-03-07T16:59:49.971Z,55.76
2023-03-07T17:02:23.402Z,56.27
2023-03-07T17:04:56.253Z,56.31
2023-03-07T17:07:27.348Z,56.93
2023-03-07T17:09:58.559Z,57.30
2023-03-07T17:12:29.589Z,57.12
2023-03-07T17:15:01.143Z,58.22
2023-03-07T17:17:38.017Z,59.05
2023-03-07T17:20:18.132Z,60.14
2023-03-07T17:22:48.768Z,60.55
2023-03-07T17:25:20.327Z,60.40
2023-03-07T17:27:56.987Z,60.93
2023-03-07T17:30:30.299Z,61.30
2023-03-07T17:33:01.332Z,61.77
2023-03-07T17:35:34.015Z,62.88
2023-03-07T17:38:04.227Z,63.70
2023-03-07T17:40:34.400Z,63.83
2023-03-07T17:43:04.858Z,63.37
2023-03-07T17:45:34.971Z,63.50
2023-03-07T17:48:05.085Z,63.67
2023-03-07T17:50:38.273Z,63.82
2023-03-07T17:53:08.626Z,65.45
2023-03-07T17:55:41.097Z,65.15
2023-03-07T17:58:14.326Z,66.25
2023-03-07T18:00:44.645Z,67.46
2023-03-07T18:03:14.968Z,65.50
2023-03-07T18:05:47.785Z,65.12
2023-03-07T18:08:18.054Z,63.81
2023-03-07T18:10:48.290Z,63.34
2023-03-07T18:13:18.718Z,63.33
2023-03-07T18:15:49.439Z,62.47
2023-03-07T18:18:19.558Z,62.93
2023-03-07T18:21:00.452Z,64.01
2023-03-07T18:23:30.992Z,63.02
2023-03-07T18:26:02.729Z,62.01
2023-03-07T18:28:54.211Z,62.23
2023-03-07T18:31:28.986Z,62.85
2023-03-07T18:34:00.982Z,60.92
2023-03-07T18:36:34.002Z,61.01
2023-03-07T18:39:04.698Z,61.41
2023-03-07T18:41:35.134Z,61.42
2023-03-07T18:44:05.901Z,61.67
2023-03-07T18:46:37.444Z,63.21
2023-03-07T18:49:08.049Z,63.08
2023-03-07T18:51:43.126Z,62.77
2023-03-07T18:54:14.154Z,61.62
2023-03-07T18:56:47.499Z,63.30
2023-03-07T18:59:18.692Z,63.65
2023-03-07T19:01:50.425Z,65.15
2023-03-07T19:04:21.504Z,66.77
2023-03-07T19:06:55.178Z,64.11
2023-03-07T19:09:26.203Z,64.31
2023-03-07T19:11:56.544Z,64.14
2023-03-07T19:14:26.926Z,64.59
2023-03-07T19:16:58.285Z,63.80
2023-03-07T19:19:28.427Z,64.31
2023-03-07T19:22:01.253Z,67.71
2023-03-07T19:24:31.942Z,68.81
2023-03-07T19:27:01.979Z,65.12
2023-03-07T19:29:32.012Z,64.58
2023-03-07T19:32:02.206Z,64.84
2023-03-07T19:34:32.204Z,71.47
2023-03-07T19:37:05.791Z,66.48
2023-03-07T19:39:37.147Z,67.36
2023-03-07T19:42:07.796Z,65.28
2023-03-07T19:44:38.283Z,66.62
2023-03-07T19:47:08.480Z,64.32
2023-03-07T19:49:38.921Z,64.00
2023-03-07T19:52:11.744Z,66.14
2023-03-07T19:54:42.174Z,63.23
2023-03-07T19:57:16.147Z,62.84
2023-03-07T19:59:46.489Z,65.11
2023-03-07T20:02:16.982Z,63.07
2023-03-07T20:04:47.139Z,62.22
2023-03-07T20:07:20.254Z,62.98
2023-03-07T20:09:54.464Z,62.52
2023-03-07T20:12:24.704Z,62.87
2023-03-07T20:14:55.163Z,63.27
2023-03-07T20:17:26.279Z,63.82
2023-03-07T20:19:58.144Z,64.72
2023-03-07T20:22:31.647Z,64.51
2023-03-07T20:25:01.844Z,64.55
2023-03-07T20:27:32.263Z,67.18
2023-03-07T20:30:02.975Z,64.21
2023-03-07T20:32:33.967Z,64.72
2023-03-07T20:35:04.834Z,64.69
2023-03-07T20:37:38.763Z,64.54
2023-03-07T20:40:12.014Z,63.95
2023-03-07T20:42:42.318Z,67.50
2023-03-07T20:45:13.969Z,66.74
2023-03-07T20:47:44.557Z,69.89
2023-03-07T20:50:15.297Z,65.71
2023-03-07T20:52:48.362Z,65.33
2023-03-07T20:55:18.579Z,65.64
2023-03-07T20:57:50.661Z,66.54
2023-03-07T21:00:22.639Z,66.42
2023-03-07T21:03:05.189Z,66.59
2023-03-07T21:05:36.230Z,68.88
2023-03-07T21:08:10.316Z,68.68
2023-03-07T21:10:40.391Z,66.16
2023-03-07T21:13:13.035Z,65.39
2023-03-07T21:15:43.949Z,68.38
2023-03-07T21:18:14.087Z,65.88
2023-03-07T21:20:44.536Z,65.25
2023-03-07T21:23:17.772Z,66.27
2023-03-07T21:25:48.549Z,65.83
2023-03-07T21:28:18.845Z,66.68
2023-03-07T21:30:49.718Z,65.36
2023-03-07T21:33:20.144Z,68.95
2023-03-07T21:35:50.953Z,65.15
2023-03-07T21:38:23.685Z,65.97
2023-03-07T21:40:54.114Z,67.45
2023-03-07T21:43:25.021Z,65.61
2023-03-07T21:45:56.324Z,64.98
2023-03-07T21:48:27.028Z,62.98
2023-03-07T21:50:57.874Z,63.83
2023-03-07T21:53:31.790Z,61.75
2023-03-07T21:56:04.797Z,61.22
2023-03-07T21:58:36.374Z,60.86
2023-03-07T22:01:14.974Z,60.42
2023-03-07T22:03:45.423Z,61.67
2023-03-07T22:06:18.202Z,60.58
2023-03-07T22:08:51.598Z,59.10
2023-03-07T22:11:21.836Z,59.45
2023-03-07T22:13:52.352Z,59.36
2023-03-07T22:16:24.106Z,59.97
2023-03-07T22:18:59.370Z,59.09
2023-03-07T22:21:29.823Z,62.90
2023-03-07T22:24:02.501Z,59.24
2023-03-07T22:26:35.136Z,59.47
2023-03-07T22:29:05.933Z,61.02
2023-03-07T22:31:36.163Z,59.73
2023-03-07T22:34:06.639Z,59.21
2023-03-07T22:36:36.771Z,61.54
2023-03-07T22:39:09.898Z,60.38
2023-03-07T22:41:40.173Z,61.11
2023-03-07T22:44:10.267Z,59.54
2023-03-07T22:46:40.672Z,59.30
2023-03-07T22:49:13.107Z,59.62
2023-03-07T22:51:43.317Z,60.95
2023-03-07T22:54:16.341Z,59.99
2023-03-07T22:56:46.720Z,59.80
2023-03-07T22:59:17.474Z,60.20
2023-03-07T23:01:48.164Z,60.37
2023-03-07T23:04:18.288Z,60.34
2023-03-07T23:06:48.800Z,60.60
2023-03-07T23:09:21.989Z,60.65
2023-03-07T23:11:52.022Z,63.84
2023-03-07T23:14:22.097Z,61.70
2023-03-07T23:16:52.658Z,65.50
2023-03-07T23:19:22.974Z,61.95
2023-03-07T23:21:53.198Z,63.27
2023-03-07T23:24:26.313Z,62.40
2023-03-07T23:26:56.767Z,66.16
2023-03-07T23:29:26.988Z,64.41
2023-03-07T23:31:57.203Z,64.39
2023-03-07T23:34:27.672Z,69.96
2023-03-07T23:36:57.804Z,67.36
2023-03-07T23:39:30.660Z,66.38
2023-03-07T23:42:00.855Z,66.61
2023-03-07T23:44:31.214Z,68.95
2023-03-07T23:47:01.393Z,70.91
2023-03-07T23:49:31.588Z,69.26
2023-03-07T23:52:01.655Z,70.71
2023-03-07T23:54:34.854Z,72.00
2023-03-07T23:57:05.022Z,72.69
2023-03-07T23:59:35.118Z,74.83
